createdAt,value
2023-04-09T00:02:44.326Z,64.47
2023-04-09T00:05:29.840Z,64.03
2023-04-09T00:08:15.199Z,66.70
2023-04-09T00:11:00.393Z,63.33
2023-04-09T00:13:45.474Z,67.87
2023-04-09T00:16:30.310Z,69.90
2023-04-09T00:19:15.782Z,64.67
2023-04-09T00:22:01.324Z,58.80
2023-04-09T00:24:46.802Z,55.53
2023-04-09T00:27:32.005Z,59.47
2023-04-09T00:30:16.869Z,62.10
2023-04-09T00:33:01.699Z,63.27
2023-04-09T00:35:47.156Z,68.67
2023-04-09T00:38:32.523Z,75.43
2023-04-09T00:41:17.840Z,70.83
2023-04-09T00:44:03.277Z,73.90
2023-04-09T00:46:48.226Z,68.97
2023-04-09T00:49:33.715Z,74.33
2023-04-09T00:52:19.493Z,64.30
2023-04-09T00:55:05.380Z,61.00
2023-04-09T00:57:50.848Z,62.17
2023-04-09T01:00:35.699Z,55.27
2023-04-09T01:03:21.533Z,60.30
2023-04-09T01:06:22.274Z,63.10
2023-04-09T01:09:21.468Z,66.00
2023-04-09T01:12:42.340Z,64.27
2023-04-09T01:15:30.917Z,63.50
2023-04-09T01:18:35.955Z,71.60
2023-04-09T01:21:26.883Z,65.20
2023-04-09T01:24:48.308Z,63.10
2023-04-09T01:28:13.954Z,56.07
2023-04-09T01:31:07.068Z,53.50
2023-04-09T01:33:52.718Z,64.53
2023-04-09T01:36:40.057Z,72.27
2023-04-09T01:39:26.503Z,72.53
2023-04-09T01:42:15.651Z,71.80
2023-04-09T01:45:02.484Z,71.00
2023-04-09T01:47:48.109Z,66.23
2023-04-09T01:50:33.897Z,65.03
2023-04-09T01:53:19.654Z,48.93
2023-04-09T01:56:05.391Z,52.07
2023-04-09T01:58:50.946Z,55.40
2023-04-09T02:01:51.989Z,61.97
2023-04-09T02:04:41.509Z,72.00
2023-04-09T02:07:37.980Z,77.67
2023-04-09T02:10:26.357Z,75.43
2023-04-09T02:13:16.490Z,86.93
2023-04-09T02:16:01.925Z,82.13
2023-04-09T02:18:47.260Z,76.23
2023-04-09T02:21:32.397Z,82.10
2023-04-09T02:24:17.731Z,78.93
2023-04-09T02:27:02.753Z,49.40
2023-04-09T02:29:47.844Z,53.27
2023-04-09T02:32:32.752Z,60.40
2023-04-09T02:35:18.196Z,76.53
2023-04-09T02:38:03.177Z,72.83
2023-04-09T02:40:48.280Z,79.63
2023-04-09T02:43:33.876Z,72.27
2023-04-09T02:46:18.940Z,80.27
2023-04-09T02:49:04.444Z,81.63
2023-04-09T02:51:49.569Z,78.60
2023-04-09T02:54:34.866Z,66.77
2023-04-09T02:57:19.792Z,72.93
2023-04-09T03:00:05.861Z,70.67
2023-04-09T03:02:51.081Z,78.93
2023-04-09T03:05:36.341Z,59.90
2023-04-09T03:08:21.214Z,63.17
2023-04-09T03:11:06.068Z,56.23
2023-04-09T03:13:51.206Z,62.43
2023-04-09T03:16:36.603Z,60.37
2023-04-09T03:19:21.432Z,68.00
2023-04-09T03:22:06.214Z,72.17
2023-04-09T03:24:51.601Z,77.83
2023-04-09T03:27:36.495Z,72.53
2023-04-09T03:30:21.358Z,71.87
2023-04-09T03:33:06.683Z,83.00
2023-04-09T03:35:52.267Z,75.43
2023-04-09T03:38:37.284Z,80.30
2023-04-09T03:41:22.577Z,66.83
2023-04-09T03:44:07.476Z,72.63
2023-04-09T03:46:52.488Z,73.60
2023-04-09T03:49:38.128Z,62.90
2023-04-09T03:52:23.481Z,57.90
2023-04-09T03:55:09.128Z,66.17
2023-04-09T03:57:54.083Z,81.33
2023-04-09T04:00:38.943Z,83.53
2023-04-09T04:03:23.932Z,94.67
2023-04-09T04:06:09.254Z,74.60
2023-04-09T04:08:54.589Z,83.73
2023-04-09T04:11:39.804Z,83.70
2023-04-09T04:14:25.095Z,71.77
2023-04-09T04:17:10.901Z,83.80
2023-04-09T04:19:55.941Z,92.93
2023-04-09T04:22:40.961Z,97.93
2023-04-09T04:25:26.487Z,92.80
2023-04-09T04:28:11.839Z,98.57
2023-04-09T04:30:57.174Z,98.00
2023-04-09T04:33:42.669Z,100.37
2023-04-09T04:36:28.010Z,97.83
2023-04-09T04:39:13.106Z,95.73
2023-04-09T04:41:58.349Z,99.77
2023-04-09T04:44:44.288Z,86.87
2023-04-09T04:47:29.237Z,96.33
2023-04-09T04:50:14.654Z,94.97
2023-04-09T04:52:59.519Z,92.50
2023-04-09T04:55:44.400Z,83.80
2023-04-09T04:58:29.426Z,104.37
2023-04-09T05:01:14.284Z,93.27
2023-04-09T05:03:59.686Z,79.30
2023-04-09T05:06:45.002Z,77.50
2023-04-09T05:09:29.898Z,75.90
2023-04-09T05:12:14.729Z,73.90
2023-04-09T05:14:59.545Z,76.13
2023-04-09T05:17:45.306Z,95.27
2023-04-09T05:20:30.586Z,105.30
2023-04-09T05:23:15.482Z,561.87
2023-04-09T05:26:00.301Z,406.80
2023-04-09T05:28:45.713Z,105.43
2023-04-09T05:31:30.651Z,96.27
2023-04-09T05:34:15.613Z,95.67
2023-04-09T05:37:01.125Z,96.60
2023-04-09T05:39:46.340Z,113.03
2023-04-09T05:42:31.360Z,117.00
2023-04-09T05:45:16.693Z,131.67
2023-04-09T05:48:02.103Z,112.27
2023-04-09T05:50:55.111Z,97.97
2023-04-09T05:53:41.280Z,101.13
2023-04-09T05:56:26.464Z,93.47
2023-04-09T05:59:11.711Z,88.03
2023-04-09T06:01:56.999Z,83.73
2023-04-09T06:04:42.314Z,81.07
2023-04-09T06:07:27.681Z,85.47
2023-04-09T06:10:12.958Z,83.43
2023-04-09T06:12:57.794Z,83.90
2023-04-09T06:15:42.609Z,74.00
2023-04-09T06:18:28.031Z,79.50
2023-04-09T06:21:13.282Z,76.73
2023-04-09T06:23:58.149Z,75.00
2023-04-09T06:26:43.081Z,73.20
2023-04-09T06:29:28.334Z,71.47
2023-04-09T06:32:13.740Z,74.77
2023-04-09T06:34:59.036Z,74.73
2023-04-09T06:37:44.530Z,71.33
2023-04-09T06:40:30.205Z,70.10
2023-04-09T06:43:15.665Z,66.77
2023-04-09T06:46:00.994Z,71.63
2023-04-09T06:48:46.584Z,70.53
2023-04-09T06:51:31.922Z,71.07
2023-04-09T06:54:17.052Z,66.40
2023-04-09T06:57:02.458Z,91.40
2023-04-09T06:59:47.415Z,68.47
2023-04-09T07:02:33.005Z,64.03
2023-04-09T07:05:18.472Z,66.57
2023-04-09T07:08:03.645Z,65.67
2023-04-09T07:10:49.078Z,67.43
2023-04-09T07:13:34.098Z,61.93
2023-04-09T07:16:19.676Z,70.10
2023-04-09T07:19:05.151Z,63.77
2023-04-09T07:21:50.082Z,61.83
2023-04-09T07:24:34.974Z,62.00
2023-04-09T07:27:20.639Z,60.47
2023-04-09T07:30:06.500Z,59.03
2023-04-09T07:32:51.825Z,58.83
2023-04-09T07:35:37.132Z,56.43
2023-04-09T07:38:22.376Z,59.70
2023-04-09T07:41:11.019Z,56.73
2023-04-09T07:43:56.114Z,53.30
2023-04-09T07:46:41.665Z,53.17
2023-04-09T07:49:26.996Z,52.40
2023-04-09T07:52:12.465Z,52.22
2023-04-09T07:54:57.910Z,52.33
2023-04-09T07:57:43.282Z,53.37
2023-04-09T08:00:28.436Z,52.30
2023-04-09T08:03:14.008Z,50.75
2023-04-09T08:05:59.372Z,51.50
2023-04-09T08:08:44.710Z,50.17
2023-04-09T08:11:29.971Z,50.63
2023-04-09T08:14:16.734Z,46.47
2023-04-09T08:17:01.778Z,45.70
2023-04-09T08:19:47.443Z,48.00
2023-04-09T08:22:32.810Z,47.22
2023-04-09T08:25:17.824Z,49.42
2023-04-09T08:28:02.622Z,46.50
2023-04-09T08:30:47.611Z,46.25
2023-04-09T08:33:33.096Z,47.50
2023-04-09T08:36:18.520Z,44.85
2023-04-09T08:39:04.092Z,43.88
2023-04-09T08:41:51.736Z,44.97
2023-04-09T08:44:37.121Z,42.35
2023-04-09T08:47:22.749Z,43.15
2023-04-09T08:50:08.224Z,41.47
2023-04-09T08:52:54.341Z,42.60
2023-04-09T08:55:39.282Z,42.20
2023-04-09T08:58:24.678Z,40.92
2023-04-09T09:01:24.213Z,40.30
2023-04-09T09:04:09.985Z,37.85
2023-04-09T09:07:06.613Z,38.08
2023-04-09T09:09:55.945Z,39.72
2023-04-09T09:12:41.813Z,37.85
2023-04-09T09:15:30.578Z,37.17
2023-04-09T09:18:16.656Z,36.65
2023-04-09T09:21:16.414Z,33.67
2023-04-09T09:24:02.413Z,35.22
2023-04-09T09:26:47.776Z,30.65
2023-04-09T09:29:41.196Z,31.75
2023-04-09T09:32:28.355Z,33.58
2023-04-09T09:35:13.427Z,34.22
2023-04-09T09:38:04.648Z,33.40
2023-04-09T09:40:50.138Z,35.92
2023-04-09T09:43:44.370Z,34.88
2023-04-09T09:46:31.400Z,33.45
2023-04-09T09:49:16.710Z,33.20
2023-04-09T09:52:05.260Z,31.60
2023-04-09T09:54:52.607Z,31.63
2023-04-09T09:57:42.138Z,32.17
2023-04-09T10:00:31.612Z,31.73
2023-04-09T10:03:22.733Z,30.85
2023-04-09T10:06:09.003Z,29.67
2023-04-09T10:08:57.956Z,30.30
2023-04-09T10:11:44.752Z,29.58
2023-04-09T10:14:30.473Z,26.25
2023-04-09T10:17:15.725Z,27.20
2023-04-09T10:20:19.136Z,27.75
2023-04-09T10:23:11.618Z,27.83
2023-04-09T10:25:57.036Z,27.02
2023-04-09T10:28:43.187Z,24.77
2023-04-09T10:31:28.294Z,29.45
2023-04-09T10:34:18.091Z,28.48
2023-04-09T10:37:03.273Z,24.17
2023-04-09T10:39:49.116Z,23.83
2023-04-09T10:42:36.621Z,24.23
2023-04-09T10:45:22.531Z,24.92
2023-04-09T10:48:11.947Z,26.98
2023-04-09T10:50:57.336Z,25.40
2023-04-09T10:53:42.693Z,25.13
2023-04-09T10:56:27.749Z,25.00
2023-04-09T10:59:12.948Z,25.73
2023-04-09T11:01:57.983Z,23.58
2023-04-09T11:04:54.564Z,40.75
2023-04-09T11:07:45.340Z,23.33
2023-04-09T11:10:34.087Z,23.58
2023-04-09T11:13:19.455Z,22.50
2023-04-09T11:16:05.397Z,26.88
2023-04-09T11:18:50.826Z,25.75
2023-04-09T11:21:36.440Z,22.67
2023-04-09T11:24:21.339Z,25.45
2023-04-09T11:27:06.671Z,21.33
2023-04-09T11:29:58.176Z,23.50
2023-04-09T11:32:43.792Z,22.73
2023-04-09T11:35:28.889Z,22.30
2023-04-09T11:38:13.791Z,21.63
2023-04-09T11:40:59.168Z,22.25
2023-04-09T11:43:44.247Z,21.40
2023-04-09T11:46:30.791Z,25.08
2023-04-09T11:49:17.154Z,47.28
2023-04-09T11:52:03.008Z,24.73
2023-04-09T11:54:49.229Z,20.70
2023-04-09T11:57:46.298Z,21.92
2023-04-09T12:00:32.313Z,21.65
2023-04-09T12:03:17.662Z,27.15
2023-04-09T12:06:05.061Z,21.90
2023-04-09T12:08:57.691Z,20.88
2023-04-09T12:11:44.456Z,23.58
2023-04-09T12:14:29.763Z,27.45
2023-04-09T12:17:14.780Z,20.92
2023-04-09T12:20:00.168Z,20.73
2023-04-09T12:22:45.632Z,20.23
2023-04-09T12:25:35.720Z,22.08
2023-04-09T12:28:20.949Z,24.33
2023-04-09T12:31:10.029Z,21.90
2023-04-09T12:33:55.245Z,20.83
2023-04-09T12:36:41.089Z,21.23
2023-04-09T12:39:26.419Z,19.08
2023-04-09T12:42:11.229Z,19.45
2023-04-09T12:44:56.141Z,18.20
2023-04-09T12:47:41.869Z,19.00
2023-04-09T12:50:27.055Z,19.75
2023-04-09T12:53:12.381Z,19.00
2023-04-09T12:55:57.408Z,21.05
2023-04-09T12:58:42.692Z,19.52
2023-04-09T13:01:28.177Z,27.73
2023-04-09T13:04:13.795Z,19.10
2023-04-09T13:06:59.288Z,19.38
2023-04-09T13:09:48.539Z,18.55
2023-04-09T13:12:33.717Z,18.27
2023-04-09T13:15:19.282Z,18.77
2023-04-09T13:18:04.485Z,18.63
2023-04-09T13:20:49.912Z,18.85
2023-04-09T13:23:35.394Z,21.05
2023-04-09T13:26:20.595Z,18.08
2023-04-09T13:29:06.928Z,19.17
2023-04-09T13:31:52.179Z,18.38
2023-04-09T13:34:38.769Z,18.98
2023-04-09T13:37:23.888Z,19.90
2023-04-09T13:40:09.341Z,20.25
2023-04-09T13:42:54.779Z,19.67
2023-04-09T13:45:39.961Z,19.23
2023-04-09T13:48:25.335Z,18.52
2023-04-09T13:51:10.534Z,19.08
2023-04-09T13:53:55.457Z,20.08
2023-04-09T13:56:40.774Z,21.58
2023-04-09T13:59:25.989Z,17.95
2023-04-09T14:02:11.290Z,21.42
2023-04-09T14:04:56.509Z,19.88
2023-04-09T14:07:42.304Z,19.75
2023-04-09T14:10:28.000Z,19.80
2023-04-09T14:13:13.539Z,20.15
2023-04-09T14:16:00.405Z,21.13
2023-04-09T14:18:45.844Z,20.33
2023-04-09T14:21:30.774Z,20.45
2023-04-09T14:24:15.626Z,20.45
2023-04-09T14:27:00.665Z,23.48
2023-04-09T14:29:45.522Z,24.65
2023-04-09T14:32:30.397Z,21.00
2023-04-09T14:35:16.115Z,21.52
2023-04-09T14:38:01.435Z,22.35
2023-04-09T14:40:46.387Z,21.90
2023-04-09T14:43:31.264Z,22.33
2023-04-09T14:46:16.245Z,22.15
2023-04-09T14:49:01.611Z,22.20
2023-04-09T14:51:46.650Z,23.50
2023-04-09T14:54:31.799Z,20.95
2023-04-09T14:57:16.510Z,21.42
2023-04-09T15:00:01.897Z,21.58
2023-04-09T15:02:47.485Z,23.08
2023-04-09T15:05:33.210Z,22.13
2023-04-09T15:08:18.410Z,23.75
2023-04-09T15:11:03.581Z,23.33
2023-04-09T15:13:48.743Z,24.33
2023-04-09T15:16:33.623Z,23.23
2023-04-09T15:19:19.010Z,22.75
2023-04-09T15:22:04.362Z,23.40
2023-04-09T15:24:51.319Z,26.50
2023-04-09T15:27:36.424Z,23.17
2023-04-09T15:30:22.976Z,25.05
2023-04-09T15:33:08.063Z,26.52
2023-04-09T15:35:54.190Z,23.52
2023-04-09T15:38:39.883Z,23.20
2023-04-09T15:41:25.733Z,24.52
2023-04-09T15:44:10.660Z,25.02
2023-04-09T15:46:55.774Z,24.25
2023-04-09T15:49:40.902Z,29.92
2023-04-09T15:52:26.451Z,24.00
2023-04-09T15:55:11.945Z,24.73
2023-04-09T15:57:57.042Z,23.60
2023-04-09T16:00:42.045Z,22.65
2023-04-09T16:03:27.270Z,24.48
2023-04-09T16:06:12.463Z,22.45
2023-04-09T16:08:57.892Z,25.20
2023-04-09T16:11:43.281Z,28.33
2023-04-09T16:14:28.293Z,20.30
2023-04-09T16:17:13.666Z,48.72
2023-04-09T16:19:58.864Z,25.88
2023-04-09T16:22:44.331Z,20.02
2023-04-09T16:25:30.032Z,19.70
2023-04-09T16:28:16.413Z,19.63
2023-04-09T16:31:01.742Z,18.83
2023-04-09T16:33:46.955Z,21.48
2023-04-09T16:36:31.994Z,20.65
2023-04-09T16:39:19.379Z,21.50
2023-04-09T16:42:04.598Z,22.40
2023-04-09T16:44:49.618Z,36.60
2023-04-09T16:47:34.953Z,45.33
2023-04-09T16:50:20.622Z,42.75
2023-04-09T16:53:06.147Z,39.10
2023-04-09T16:55:51.684Z,44.00
2023-04-09T16:58:36.942Z,31.75
2023-04-09T17:01:22.074Z,27.40
2023-04-09T17:04:07.485Z,27.88
2023-04-09T17:06:52.798Z,35.28
2023-04-09T17:09:38.280Z,252.55
2023-04-09T17:12:23.664Z,47.90
2023-04-09T17:15:09.706Z,30.67
2023-04-09T17:17:55.124Z,43.25
2023-04-09T17:20:40.462Z,31.67
2023-04-09T17:23:25.384Z,28.83
2023-04-09T17:26:10.900Z,27.60
2023-04-09T17:28:55.803Z,31.88
2023-04-09T17:31:41.319Z,35.22
2023-04-09T17:34:26.562Z,32.90
2023-04-09T17:37:11.378Z,30.58
2023-04-09T17:39:56.740Z,26.77
2023-04-09T17:42:42.198Z,26.85
2023-04-09T17:45:27.407Z,25.65
2023-04-09T17:48:12.918Z,24.73
2023-04-09T17:50:58.275Z,23.15
2023-04-09T17:53:43.325Z,22.45
2023-04-09T17:56:28.669Z,22.50
2023-04-09T17:59:14.166Z,25.63
2023-04-09T18:02:00.701Z,23.85
2023-04-09T18:04:45.936Z,23.55
2023-04-09T18:07:31.698Z,23.90
2023-04-09T18:10:16.908Z,24.38
2023-04-09T18:13:02.193Z,24.52
2023-04-09T18:15:47.574Z,26.80
2023-04-09T18:18:32.999Z,29.35
2023-04-09T18:21:18.064Z,27.30
2023-04-09T18:24:04.378Z,27.52
2023-04-09T18:26:49.793Z,28.73
2023-04-09T18:29:35.207Z,28.48
2023-04-09T18:32:20.360Z,31.73
2023-04-09T18:35:06.217Z,27.88
2023-04-09T18:37:51.554Z,27.67
2023-04-09T18:40:43.863Z,28.42
2023-04-09T18:43:29.525Z,31.55
2023-04-09T18:46:14.839Z,34.47
2023-04-09T18:48:59.655Z,35.65
2023-04-09T18:51:44.486Z,36.83
2023-04-09T18:54:29.399Z,39.25
2023-04-09T18:57:14.468Z,38.83
2023-04-09T19:00:00.520Z,41.15
2023-04-09T19:02:46.114Z,39.08
2023-04-09T19:05:32.372Z,41.00
2023-04-09T19:08:17.304Z,44.85
2023-04-09T19:11:02.844Z,44.83
2023-04-09T19:13:47.914Z,46.03
2023-04-09T19:16:33.317Z,45.08
2023-04-09T19:19:18.625Z,45.90
2023-04-09T19:22:03.909Z,49.53
2023-04-09T19:24:49.529Z,46.70
2023-04-09T19:27:34.635Z,45.80
2023-04-09T19:30:20.268Z,46.05
2023-04-09T19:33:05.580Z,43.63
2023-04-09T19:35:52.632Z,45.78
2023-04-09T19:38:37.721Z,49.03
2023-04-09T19:41:23.057Z,48.67
2023-04-09T19:44:08.031Z,51.87
2023-04-09T19:46:52.937Z,51.40
2023-04-09T19:49:38.285Z,54.75
2023-04-09T19:52:23.783Z,47.67
2023-04-09T19:55:09.778Z,56.30
2023-04-09T19:57:54.894Z,59.63
2023-04-09T20:00:40.271Z,91.68
2023-04-09T20:03:25.761Z,96.83
2023-04-09T20:06:10.941Z,106.18
2023-04-09T20:08:56.405Z,106.63
2023-04-09T20:11:41.758Z,101.10
2023-04-09T20:14:27.183Z,100.53
2023-04-09T20:17:12.668Z,100.55
2023-04-09T20:19:57.933Z,96.70
2023-04-09T20:22:43.488Z,96.57
2023-04-09T20:25:28.918Z,92.53
2023-04-09T20:28:14.271Z,95.67
2023-04-09T20:31:02.647Z,93.63
2023-04-09T20:33:48.237Z,94.90
2023-04-09T20:36:34.385Z,94.27
2023-04-09T20:39:22.052Z,95.63
2023-04-09T20:42:07.672Z,90.77
2023-04-09T20:44:52.831Z,91.27
2023-04-09T20:47:38.379Z,86.27
2023-04-09T20:50:23.571Z,82.70
2023-04-09T20:53:08.872Z,84.73
2023-04-09T20:55:54.967Z,79.80
2023-04-09T20:58:40.013Z,82.40
2023-04-09T21:01:25.569Z,82.57
2023-04-09T21:04:11.435Z,139.27
2023-04-09T21:06:56.924Z,87.37
2023-04-09T21:09:42.222Z,79.67
2023-04-09T21:12:27.966Z,76.63
2023-04-09T21:15:13.228Z,77.73
2023-04-09T21:17:58.683Z,77.50
2023-04-09T21:20:47.117Z,80.80
2023-04-09T21:23:32.300Z,80.87
2023-04-09T21:26:17.730Z,77.67
2023-04-09T21:29:02.711Z,81.83
2023-04-09T21:31:48.718Z,81.20
2023-04-09T21:34:33.906Z,84.27
2023-04-09T21:37:18.803Z,82.03
2023-04-09T21:40:05.222Z,79.97
2023-04-09T21:42:51.017Z,82.53
2023-04-09T21:45:35.968Z,77.07
2023-04-09T21:48:21.432Z,81.47
2023-04-09T21:51:09.778Z,77.60
2023-04-09T21:54:06.073Z,81.90
2023-04-09T21:56:51.225Z,79.90
2023-04-09T21:59:37.095Z,80.00
2023-04-09T22:02:22.877Z,78.27
2023-04-09T22:05:08.212Z,85.90
2023-04-09T22:07:54.784Z,87.00
2023-04-09T22:10:39.653Z,94.30
2023-04-09T22:13:25.075Z,108.73
2023-04-09T22:16:10.233Z,98.13
2023-04-09T22:18:57.255Z,111.63
2023-04-09T22:21:42.883Z,111.50
2023-04-09T22:24:27.941Z,106.17
2023-04-09T22:27:13.308Z,95.07
2023-04-09T22:29:58.988Z,85.47
2023-04-09T22:32:44.134Z,83.83
2023-04-09T22:35:29.513Z,76.77
2023-04-09T22:38:14.816Z,81.00
2023-04-09T22:41:00.636Z,77.83
2023-04-09T22:43:46.186Z,82.37
2023-04-09T22:46:31.570Z,77.57
2023-04-09T22:49:17.007Z,77.57
2023-04-09T22:52:02.278Z,79.37
2023-04-09T22:54:47.797Z,83.03
2023-04-09T22:57:32.659Z,90.47
2023-04-09T23:00:18.125Z,83.63
2023-04-09T23:03:03.806Z,83.97
2023-04-09T23:05:48.830Z,81.17
2023-04-09T23:08:33.745Z,82.47
2023-04-09T23:11:18.630Z,82.30
2023-04-09T23:14:03.630Z,81.00
2023-04-09T23:16:48.564Z,81.53
2023-04-09T23:19:33.901Z,81.07
2023-04-09T23:22:19.339Z,76.13
2023-04-09T23:25:04.507Z,75.50
2023-04-09T23:27:49.697Z,79.33
2023-04-09T23:30:35.068Z,79.63
2023-04-09T23:33:20.089Z,81.77
2023-04-09T23:36:05.683Z,81.53
2023-04-09T23:38:50.910Z,81.97
2023-04-09T23:41:36.004Z,76.13
2023-04-09T23:44:21.383Z,80.23
2023-04-09T23:47:06.440Z,79.37
2023-04-09T23:49:51.725Z,76.83
2023-04-09T23:52:38.170Z,76.60
2023-04-09T23:55:23.625Z,85.13
2023-04-09T23:58:09.024Z,84.40
